Rodney, IA (51051)

7:25 PM CDT on October 01, 2014 (GMT -0500)
Castana | Change Station
CLOSE
Current Station
Personal Weather Station
Location: Castana, IA
Elevation: 1099 ft
Nearby Weather Stations

Elev 1099 ft 42.08 °N, 95.89 °W | Updated 4 seconds ago

Partly Cloudy
Partly Cloudy
66.7 °F
Feels Like 66.7 °F
N
0.0
Wind Variable Wind from NNE
Gusts 0.0 mph

Today
High -- | Low -- °F
--% Chance of Precip.
Yesterday
High -- | Low -- °F
Precip. -- in
7:20 AM 7:05 PM
First Quarter, 52% visible
Pressure 29.75 in
Visibility 10.0 miles
Clouds Few 1700 ft
Overcast 3900 ft
Dew Point 63 °F
Humidity 87%
Rainfall 0.22 in
Snow Depth Not available.
UV 0 out of 12
Pollen 1.90 out of 12
Air Quality Not available.
Flu Activity Not available.
METAR KSUX 302352Z 13011KT 10SM FEW017 OVC039 19/17 A2975 RMK AO2 SLP072 60024 T01940172 10206 20178 56008

More Conditions Fewer Conditions

Pressure 29.75 in
Visibility 10.0 miles
Clouds Few 1700 ft
Overcast 3900 ft
Dew Point 63 °F
Humidity 87%
Rainfall 0.22 in
Snow Depth Not available.
UV 0 out of 12
Pollen 1.90 out of 12
Air Quality Not available.
Flu Activity Not available.
METAR KSUX 302352Z 13011KT 10SM FEW017 OVC039 19/17 A2975 RMK AO2 SLP072 60024 T01940172 10206 20178 56008

More Conditions Fewer Conditions

10-Day Weather Forecast

Almanac

Astronomy

Oct. 01, 2014 Rise Set
Actual Time 7:20 AM CDT 7:05 PM CDT
Civil Twilight 6:52 AM CDT 7:33 PM CDT
Nautical Twilight 6:20 AM CDT 8:05 PM CDT
Astronomical Twilight 5:47 AM CDT 8:38 PM CDT
Moon 2:27 PM CDT (10/1) No Moon Set
Length of Visible Light 12h 40m
Length of Day
11h 44m
Tomorrow will be 2m 49s shorter.
First Quarter, 52% of the Moon is Illuminated
Today
First Quarter
Oct 8
Full
Oct 15
Last Quarter
Oct 23
New
Oct 30
First Quarter

Today's Extremes

State Highs State Lows

Community

WunderPhotos

Upload Photos

1,758,097 photos uploaded!

WunderBlogs® & News

Nearby

Snow Depth

Station Depth Elevation
No new snow has been reported.

Earthquake Activity

City Distance Mag. Time & Date
No recent earthquake activity has been reported nearby.
Minimum magnitude displayed is 2.5.

Coastal Water Temperatures

Place Temperature
No Stations Reporting

Nearby Weather Stations